createdAt,value
2022-12-24T00:00:49.685Z,99142.00
2022-12-24T00:03:21.649Z,99141.42
2022-12-24T00:05:54.157Z,99149.48
2022-12-24T00:08:24.804Z,99144.30
2022-12-24T00:10:57.459Z,99140.22
2022-12-24T00:13:31.810Z,99148.16
2022-12-24T00:16:01.510Z,99151.70
2022-12-24T00:18:32.063Z,99151.27
2022-12-24T00:21:02.298Z,99153.48
2022-12-24T00:23:34.524Z,99148.98
2022-12-24T00:26:03.937Z,99155.20
2022-12-24T00:28:33.037Z,99154.59
2022-12-24T00:31:18.711Z,99154.77
2022-12-24T00:33:50.564Z,99156.77
2022-12-24T00:36:21.212Z,99148.98
2022-12-24T00:38:53.463Z,99143.96
2022-12-24T00:41:25.725Z,99152.11
2022-12-24T00:44:10.596Z,99152.02
2022-12-24T00:50:59.045Z,99154.34
2022-12-24T00:53:28.896Z,99157.66
2022-12-24T00:55:59.070Z,99162.06
2022-12-24T00:58:33.532Z,99164.72
2022-12-24T01:01:06.898Z,99162.73
2022-12-24T01:03:37.058Z,99165.02
2022-12-24T01:06:18.528Z,99168.03
2022-12-24T01:08:52.063Z,99174.55
2022-12-24T01:11:22.386Z,99175.79
2022-12-24T01:13:56.045Z,99177.89
2022-12-24T01:16:26.344Z,99179.15
2022-12-24T01:18:55.508Z,99177.05
2022-12-24T01:21:26.107Z,99178.15
2022-12-24T01:23:55.286Z,99178.36
2022-12-24T01:26:26.117Z,99180.27
2022-12-24T01:28:55.294Z,99185.39
2022-12-24T01:31:26.905Z,99184.98
2022-12-24T01:33:57.320Z,99188.77
2022-12-24T01:36:30.281Z,99187.80
2022-12-24T01:39:00.209Z,99184.48
2022-12-24T01:41:50.546Z,99181.13
2022-12-24T01:44:35.623Z,99188.25
2022-12-24T01:48:24.501Z,99188.81
2022-12-24T01:51:19.738Z,99192.86
2022-12-24T01:53:55.522Z,99194.45
2022-12-24T01:56:26.982Z,99191.85
2022-12-24T01:59:01.807Z,99195.38
2022-12-24T02:01:33.110Z,99195.30
2022-12-24T02:04:12.771Z,99199.11
2022-12-24T02:06:41.912Z,99202.16
2022-12-24T02:09:12.832Z,99201.95
2022-12-24T02:11:45.297Z,99207.02
2022-12-24T02:14:15.967Z,99204.38
2022-12-24T02:17:14.205Z,99208.75
2022-12-24T02:20:14.151Z,99215.09
2022-12-24T02:22:54.754Z,99212.83
2022-12-24T02:25:42.036Z,99211.43
2022-12-24T02:28:25.736Z,99203.98
2022-12-24T02:31:06.828Z,99203.02
2022-12-24T02:33:47.826Z,99200.77
2022-12-24T02:36:35.904Z,99201.93
2022-12-24T02:39:21.316Z,99208.02
2022-12-24T02:42:06.783Z,99214.04
2022-12-24T02:44:46.737Z,99220.05
2022-12-24T02:47:39.332Z,99217.52
2022-12-24T02:50:11.364Z,99217.05
2022-12-24T02:52:43.732Z,99219.21
2022-12-24T02:55:48.032Z,99220.90
2022-12-24T02:58:38.928Z,99225.70
2022-12-24T03:01:39.907Z,99221.19
2022-12-24T03:04:18.875Z,99216.08
2022-12-24T03:07:05.652Z,99212.27
2022-12-24T03:10:16.317Z,99216.59
2022-12-24T03:13:02.617Z,99217.29
2022-12-24T03:15:33.780Z,99219.58
2022-12-24T03:18:04.267Z,99223.73
2022-12-24T03:20:47.299Z,99226.98
2022-12-24T03:23:20.219Z,99224.34
2022-12-24T03:25:50.536Z,99226.28
2022-12-24T03:28:24.999Z,99228.64
2022-12-24T03:30:55.151Z,99230.73
2022-12-24T03:33:27.107Z,99234.17
2022-12-24T03:35:56.350Z,99232.13
2022-12-24T03:38:26.459Z,99230.70
2022-12-24T03:40:58.474Z,99236.20
2022-12-24T03:43:29.149Z,99240.25
2022-12-24T03:45:59.378Z,99241.97
2022-12-24T03:48:32.727Z,99243.29
2022-12-24T03:51:05.374Z,99240.16
2022-12-24T03:53:35.380Z,99243.21
2022-12-24T03:56:10.528Z,99246.55
2022-12-24T03:58:41.905Z,99251.39
2022-12-24T04:01:11.698Z,99249.42
2022-12-24T04:03:42.543Z,99251.41
2022-12-24T04:06:15.117Z,99248.72
2022-12-24T04:08:44.923Z,99249.06
2022-12-24T04:11:17.169Z,99248.62
2022-12-24T04:13:46.966Z,99250.70
2022-12-24T04:16:17.224Z,99248.86
2022-12-24T04:18:47.764Z,99249.35
2022-12-24T04:21:17.207Z,99248.55
2022-12-24T04:23:48.877Z,99252.83
2022-12-24T04:26:19.620Z,99254.29
2022-12-24T04:28:49.144Z,99252.64
2022-12-24T04:31:20.719Z,99251.91
2022-12-24T04:33:53.795Z,99244.31
2022-12-24T04:36:22.991Z,99247.62
2022-12-24T04:38:53.459Z,99246.98
2022-12-24T04:41:26.164Z,99247.09
2022-12-24T04:43:56.245Z,99246.20
2022-12-24T04:46:52.473Z,99245.23
2022-12-24T04:49:21.678Z,99244.83
2022-12-24T04:51:52.379Z,99247.23
2022-12-24T04:54:21.913Z,99251.83
2022-12-24T04:56:51.919Z,99257.86
2022-12-24T04:59:22.480Z,99256.00
2022-12-24T05:01:51.820Z,99258.97
2022-12-24T05:04:21.040Z,99256.04
2022-12-24T05:06:51.893Z,99257.08
2022-12-24T05:09:22.618Z,99257.14
2022-12-24T05:11:51.646Z,99255.12
2022-12-24T05:14:20.657Z,99260.83
2022-12-24T05:16:49.839Z,99264.21
2022-12-24T05:19:18.965Z,99266.08
2022-12-24T05:22:10.584Z,99262.40
2022-12-24T05:24:58.313Z,99267.17
2022-12-24T05:27:30.999Z,99274.98
2022-12-24T05:30:00.650Z,99281.00
2022-12-24T05:32:30.922Z,99283.52
2022-12-24T05:35:00.840Z,99283.64
2022-12-24T05:37:30.141Z,99287.14
2022-12-24T05:39:59.586Z,99287.74
2022-12-24T05:42:29.948Z,99286.11
2022-12-24T05:45:28.112Z,99292.23
2022-12-24T05:47:57.415Z,99289.07
2022-12-24T05:50:29.864Z,99292.78
2022-12-24T05:53:08.226Z,99295.73
2022-12-24T05:55:38.135Z,99303.73
2022-12-24T05:58:08.523Z,99307.45
2022-12-24T06:00:39.786Z,99308.13
2022-12-24T06:03:12.481Z,99314.72
2022-12-24T06:05:45.268Z,99316.20
2022-12-24T06:08:14.286Z,99323.20
2022-12-24T06:10:44.841Z,99325.58
2022-12-24T06:13:14.171Z,99327.89
2022-12-24T06:15:43.074Z,99333.21
2022-12-24T06:18:12.252Z,99337.11
2022-12-24T06:20:42.040Z,99338.95
2022-12-24T06:23:11.425Z,99338.24
2022-12-24T06:25:40.675Z,99343.43
2022-12-24T06:28:11.484Z,99343.43
2022-12-24T06:30:42.886Z,99347.02
2022-12-24T06:33:12.641Z,99349.86
2022-12-24T06:35:42.119Z,99349.29
2022-12-24T06:38:11.265Z,99351.80
2022-12-24T06:40:43.656Z,99351.51
2022-12-24T06:43:14.239Z,99355.86
2022-12-24T06:45:48.964Z,99366.55
2022-12-24T06:48:18.177Z,99374.94
2022-12-24T06:50:49.160Z,99379.02
2022-12-24T06:53:18.607Z,99369.75
2022-12-24T06:55:48.876Z,99380.02
2022-12-24T06:58:20.722Z,99381.52
2022-12-24T07:00:52.166Z,99387.30
2022-12-24T07:03:35.489Z,99388.23
2022-12-24T07:06:29.112Z,99386.69
2022-12-24T07:09:29.806Z,99390.02
2022-12-24T07:12:04.470Z,99397.09
2022-12-24T07:14:44.967Z,99395.19
2022-12-24T07:17:18.352Z,99399.23
2022-12-24T07:20:08.208Z,99403.34
2022-12-24T07:22:46.481Z,99409.18
2022-12-24T07:25:18.842Z,99412.37
2022-12-24T07:27:49.723Z,99415.01
2022-12-24T07:30:37.442Z,99422.20
2022-12-24T07:33:32.450Z,99424.04
2022-12-24T07:36:29.802Z,99422.88
2022-12-24T07:39:12.017Z,99415.17
2022-12-24T07:41:42.575Z,99414.98
2022-12-24T07:44:18.863Z,99414.02
2022-12-24T07:51:05.938Z,99430.84
2022-12-24T07:54:26.051Z,99432.92
2022-12-24T07:57:00.730Z,99430.84
2022-12-24T07:59:36.094Z,99431.98
2022-12-24T08:02:14.276Z,99438.70
2022-12-24T08:05:06.940Z,99441.59
2022-12-24T08:07:42.759Z,99445.42
2022-12-24T08:10:16.364Z,99444.90
2022-12-24T08:12:47.464Z,99446.23
2022-12-24T08:15:19.680Z,99449.66
2022-12-24T08:20:57.953Z,99465.48
2022-12-24T08:23:31.509Z,99472.52
2022-12-24T08:26:02.771Z,99476.40
2022-12-24T08:28:31.793Z,99478.59
2022-12-24T08:31:00.923Z,99478.42
2022-12-24T08:33:32.222Z,99481.38
2022-12-24T08:36:04.056Z,99483.01
2022-12-24T08:38:34.215Z,99486.35
2022-12-24T08:41:06.416Z,99495.17
2022-12-24T08:43:42.305Z,99496.98
2022-12-24T08:51:12.502Z,99498.44
2022-12-24T08:53:45.951Z,99508.54
2022-12-24T08:56:33.760Z,99510.14
2022-12-24T08:59:09.402Z,99510.83
2022-12-24T09:01:51.602Z,99517.36
2022-12-24T09:04:29.002Z,99520.63
2022-12-24T09:06:59.758Z,99522.43
2022-12-24T09:09:36.061Z,99523.88
2022-12-24T09:12:11.929Z,99521.09
2022-12-24T09:15:04.146Z,99525.12
2022-12-24T09:17:36.465Z,99522.39
2022-12-24T09:20:46.986Z,99523.66
2022-12-24T09:44:25.483Z,99537.19
2022-12-24T09:52:46.458Z,99538.34
2022-12-24T09:55:30.648Z,99537.50
2022-12-24T10:03:33.175Z,99539.64
2022-12-24T10:16:26.005Z,99549.90
2022-12-24T10:19:20.850Z,99555.68
2022-12-24T10:22:24.850Z,99563.11
2022-12-24T10:43:45.279Z,99582.39
2022-12-24T10:51:26.385Z,99592.21
2022-12-24T10:54:11.791Z,99592.80
2022-12-24T10:56:45.249Z,99593.92
2022-12-24T10:59:45.400Z,99592.65
2022-12-24T11:02:40.980Z,99592.23
2022-12-24T11:05:35.609Z,99595.08
2022-12-24T11:08:36.947Z,99598.45
2022-12-24T11:11:14.440Z,99604.31
2022-12-24T11:13:52.996Z,99608.68
2022-12-24T11:16:32.952Z,99610.25
2022-12-24T11:19:05.305Z,99616.17
2022-12-24T11:21:43.877Z,99619.80
2022-12-24T11:24:34.589Z,99622.65
2022-12-24T11:27:23.662Z,99630.84
2022-12-24T11:30:13.454Z,99634.28
2022-12-24T11:32:48.737Z,99637.23
2022-12-24T11:35:27.141Z,99631.70
2022-12-24T11:38:01.658Z,99632.97
2022-12-24T11:41:22.766Z,99638.42
2022-12-24T11:44:00.593Z,99649.14
2022-12-24T11:46:42.102Z,99654.31
2022-12-24T11:49:14.912Z,99652.16
2022-12-24T11:52:13.683Z,99654.39
2022-12-24T11:55:08.960Z,99656.27
2022-12-24T11:58:13.941Z,99660.98
2022-12-24T12:00:46.621Z,99668.18
2022-12-24T12:03:42.238Z,99674.13
2022-12-24T12:06:54.096Z,99676.64
2022-12-24T12:43:54.627Z,99730.54
2022-12-24T13:13:24.008Z,99769.65
2022-12-24T13:16:39.655Z,99776.98
2022-12-24T13:19:47.017Z,99787.23
2022-12-24T13:22:28.366Z,99793.78
2022-12-24T13:25:22.481Z,99794.00
2022-12-24T13:28:37.716Z,99803.54
2022-12-24T13:31:23.505Z,99812.04
2022-12-24T13:34:03.978Z,99812.65
2022-12-24T13:37:46.124Z,99814.82
2022-12-24T13:40:23.151Z,99817.08
2022-12-24T13:43:09.566Z,99814.27
2022-12-24T13:46:10.159Z,99815.11
2022-12-24T13:48:42.038Z,99818.79
2022-12-24T13:51:25.786Z,99821.04
2022-12-24T13:54:01.408Z,99830.44
2022-12-24T13:56:38.547Z,99833.98
2022-12-24T13:59:37.855Z,99842.51
2022-12-24T14:02:22.809Z,99847.13
2022-12-24T14:04:54.177Z,99849.06
2022-12-24T14:07:35.026Z,99845.45
2022-12-24T14:10:07.885Z,99841.06
2022-12-24T14:12:51.115Z,99835.75
2022-12-24T14:15:51.940Z,99836.11
2022-12-24T14:18:25.553Z,99841.81
2022-12-24T14:21:00.177Z,99850.12
2022-12-24T14:23:54.085Z,99855.31
2022-12-24T14:26:28.310Z,99859.86
2022-12-24T14:29:34.461Z,99867.00
2022-12-24T14:32:16.805Z,99871.13
2022-12-24T14:34:50.275Z,99876.94
2022-12-24T14:37:30.209Z,99878.29
2022-12-24T14:40:08.112Z,99882.00
2022-12-24T14:43:24.332Z,99887.39
2022-12-24T14:46:49.770Z,99899.75
2022-12-24T14:50:05.722Z,99913.95
2022-12-24T14:53:04.688Z,99917.35
2022-12-24T14:55:45.534Z,99917.48
2022-12-24T14:58:34.577Z,99917.92
2022-12-24T15:01:28.258Z,99917.71
2022-12-24T15:04:24.568Z,99919.81
2022-12-24T15:07:18.702Z,99925.05
2022-12-24T15:11:01.307Z,99927.40
2022-12-24T15:13:40.704Z,99927.48
2022-12-24T15:16:24.441Z,99929.89
2022-12-24T15:19:21.707Z,99933.50
2022-12-24T15:21:52.102Z,99939.89
2022-12-24T15:24:28.498Z,99942.85
2022-12-24T15:27:09.353Z,99941.93
2022-12-24T15:30:17.218Z,99940.87
2022-12-24T16:06:57.955Z,99988.11
2022-12-24T16:09:45.827Z,99995.31
2022-12-24T16:12:20.178Z,99993.77
2022-12-24T16:18:59.513Z,100005.39
2022-12-24T17:58:43.160Z,100083.04
2022-12-24T18:01:12.442Z,100080.14
2022-12-24T18:03:41.652Z,100081.59
2022-12-24T18:06:12.731Z,100088.14
2022-12-24T18:08:45.380Z,100093.23
2022-12-24T18:11:21.117Z,100102.85
2022-12-24T18:13:54.848Z,100105.98
2022-12-24T18:16:31.000Z,100104.77
2022-12-24T18:19:00.833Z,100105.50
2022-12-24T18:21:32.476Z,100105.58
2022-12-24T18:24:02.262Z,100107.30
2022-12-24T18:26:32.950Z,100109.90
2022-12-24T18:29:08.364Z,100115.05
2022-12-24T18:31:36.779Z,100119.76
2022-12-24T18:34:08.534Z,100117.90
2022-12-24T18:36:38.063Z,100118.33
2022-12-24T18:39:09.790Z,100124.80
2022-12-24T18:41:39.849Z,100129.54
2022-12-24T18:44:09.677Z,100133.02
2022-12-24T18:46:42.498Z,100136.08
2022-12-24T18:49:12.729Z,100133.96
2022-12-24T18:51:42.590Z,100128.89
2022-12-24T18:54:12.452Z,100135.13
2022-12-24T18:56:42.534Z,100140.70
2022-12-24T18:59:12.713Z,100144.95
2022-12-24T19:01:43.321Z,100145.08
2022-12-24T19:04:14.622Z,100147.56
2022-12-24T19:06:52.755Z,100147.13
2022-12-24T19:09:22.716Z,100150.21
2022-12-24T19:11:54.500Z,100154.45
2022-12-24T19:14:24.845Z,100157.85
2022-12-24T19:16:56.275Z,100166.77
2022-12-24T19:19:24.301Z,100161.39
2022-12-24T19:21:52.342Z,100166.86
2022-12-24T19:24:25.953Z,100175.88
2022-12-24T19:26:54.197Z,100179.55
2022-12-24T19:29:22.945Z,100182.71
2022-12-24T19:31:53.181Z,100182.35
2022-12-24T19:34:21.037Z,100184.90
2022-12-24T19:36:51.203Z,100178.86
2022-12-24T19:39:20.067Z,100173.52
2022-12-24T19:41:49.308Z,100175.93
2022-12-24T19:44:20.342Z,100177.86
2022-12-24T19:46:50.494Z,100180.54
2022-12-24T19:49:18.483Z,100187.44
2022-12-24T19:51:46.441Z,100197.15
2022-12-24T19:54:18.871Z,100198.67
2022-12-24T19:56:47.237Z,100207.41
2022-12-24T19:59:16.490Z,100211.35
2022-12-24T20:01:45.799Z,100216.62
2022-12-24T20:04:18.051Z,100222.20
2022-12-24T20:06:47.966Z,100232.17
2022-12-24T20:09:18.021Z,100234.81
2022-12-24T20:11:45.912Z,100237.48
2022-12-24T20:14:18.684Z,100244.08
2022-12-24T20:16:47.116Z,100254.82
2022-12-24T20:19:15.465Z,100254.45
2022-12-24T20:21:46.311Z,100256.36
2022-12-24T20:24:17.443Z,100262.41
2022-12-24T20:26:48.088Z,100262.18
2022-12-24T20:29:16.120Z,100269.49
2022-12-24T20:31:44.048Z,100271.14
2022-12-24T20:34:14.570Z,100268.91
2022-12-24T20:36:42.375Z,100265.66
2022-12-24T20:39:12.998Z,100264.38
2022-12-24T20:41:40.871Z,100258.50
2022-12-24T20:44:11.726Z,100262.84
2022-12-24T20:46:46.371Z,100261.47
2022-12-24T20:49:15.679Z,100254.04
2022-12-24T20:51:45.215Z,100250.71
2022-12-24T20:54:17.023Z,100248.62
2022-12-24T20:56:46.997Z,100248.63
2022-12-24T20:59:28.126Z,100250.51
2022-12-24T21:01:57.302Z,100249.92
2022-12-24T21:04:25.119Z,100253.02
2022-12-24T21:06:56.357Z,100254.34
2022-12-24T21:09:26.111Z,100253.23
2022-12-24T21:11:53.655Z,100251.27
2022-12-24T21:14:29.214Z,100254.57
2022-12-24T21:17:15.794Z,100257.67
2022-12-24T21:19:47.327Z,100256.19
2022-12-24T21:22:37.302Z,100254.30
2022-12-24T21:25:15.336Z,100250.61
2022-12-24T21:27:43.358Z,100250.42
2022-12-24T21:30:17.594Z,100252.48
2022-12-24T21:33:00.386Z,100254.98
2022-12-24T21:35:37.675Z,100255.39
2022-12-24T21:38:14.321Z,100260.55
2022-12-24T21:40:47.029Z,100260.80
2022-12-24T21:43:17.616Z,100263.33
2022-12-24T21:46:15.166Z,100264.95
2022-12-24T21:49:03.481Z,100265.89
2022-12-24T21:51:37.885Z,100262.32
2022-12-24T21:54:30.242Z,100262.98
2022-12-24T21:57:21.394Z,100261.91
2022-12-24T21:59:52.527Z,100265.85
2022-12-24T22:02:27.308Z,100260.19
2022-12-24T22:04:56.061Z,100262.55
2022-12-24T22:07:47.365Z,100256.89
2022-12-24T22:10:49.471Z,100261.41
2022-12-24T22:13:29.459Z,100259.33
2022-12-24T22:16:01.233Z,100258.19
2022-12-24T22:18:37.017Z,100260.42
2022-12-24T22:21:05.839Z,100262.50
2022-12-24T22:23:38.541Z,100261.16
2022-12-24T22:26:16.067Z,100258.86
2022-12-24T22:28:44.060Z,100256.64
2022-12-24T22:31:23.477Z,100254.79
2022-12-24T22:33:55.357Z,100252.04
2022-12-24T22:36:24.458Z,100252.83
2022-12-24T22:38:59.386Z,100249.80
2022-12-24T22:41:29.852Z,100248.52
2022-12-24T22:43:58.806Z,100247.91
2022-12-24T22:47:16.167Z,100248.25
2022-12-24T22:49:44.648Z,100249.45
2022-12-24T22:52:17.697Z,100251.31
2022-12-24T22:54:48.763Z,100250.27
2022-12-24T22:57:24.685Z,100251.23
2022-12-24T23:00:48.904Z,100250.20
2022-12-24T23:03:33.588Z,100241.17
2022-12-24T23:06:41.066Z,100240.20
2022-12-24T23:09:33.709Z,100239.67
2022-12-24T23:12:17.614Z,100243.83
2022-12-24T23:15:06.560Z,100243.52
2022-12-24T23:18:20.640Z,100247.33
2022-12-24T23:21:24.470Z,100253.82
2022-12-24T23:24:06.035Z,100261.33
2022-12-24T23:26:34.173Z,100263.68
2022-12-24T23:29:01.834Z,100264.23
2022-12-24T23:31:34.301Z,100262.23
2022-12-24T23:34:06.476Z,100262.87
2022-12-24T23:36:35.207Z,100260.38
2022-12-24T23:39:03.705Z,100261.87
2022-12-24T23:41:34.091Z,100265.27
2022-12-24T23:44:03.803Z,100269.92
2022-12-24T23:46:32.101Z,100268.03
2022-12-24T23:48:59.978Z,100273.83
2022-12-24T23:51:29.715Z,100279.91
2022-12-24T23:53:57.751Z,100282.15
2022-12-24T23:56:26.038Z,100284.11
2022-12-24T23:58:53.812Z,100292.77
